Time;durP1;ratioP1;P1;durP2;ratioP2;P2;SDS_P1;SDS_P2;PMS_P1;PMS_P2;Temp;Humidity;BMP_temperature;BMP_pressure;BME280_temperature;BME280_humidity;BME280_pressure;Samples;Min_cycle;Max_cycle;Signal;HPM_P1;HPM_P2
2022/08/25 00:01:31;;;;;;;9.38;6.55;;;;;;;;;;5003482;28;20110;-75
2022/08/25 00:03:59;;;;;;;10.57;7.28;;;;;;;;;;5002085;28;20082;-75
2022/08/25 00:06:27;;;;;;;12.57;7.90;;;;;;;;;;5021312;28;20046;-75
2022/08/25 00:08:58;;;;;;;14.93;8.00;;;;;;;;;;5009247;28;20051;-75
2022/08/25 00:11:27;;;;;;;10.27;7.93;;;;;;;;;;5004657;28;20105;-75
2022/08/25 00:13:57;;;;;;;11.60;7.63;;;;;;;;;;4998926;28;20039;-75
2022/08/25 00:16:25;;;;;;;10.13;7.88;;;;;;;;;;5010211;28;20037;-75
2022/08/25 00:18:57;;;;;;;10.07;8.20;;;;;;;;;;5005916;28;20047;-76
2022/08/25 00:21:25;;;;;;;13.15;9.02;;;;;;;;;;5004872;28;20046;-75
2022/08/25 00:23:52;;;;;;;14.48;8.85;;;;;;;;;;5011294;28;20042;-75
2022/08/25 00:26:20;;;;;;;10.38;7.90;;;;;;;;;;5016366;28;20052;-75
2022/08/25 00:28:47;;;;;;;9.52;6.68;;;;;;;;;;5007578;28;20091;-74
2022/08/25 00:31:15;;;;;;;7.18;6.18;;;;;;;;;;5000697;28;21744;-75
2022/08/25 00:33:43;;;;;;;8.73;6.53;;;;;;;;;;5010109;28;20922;-74
2022/08/25 00:36:11;;;;;;;10.85;6.68;;;;;;;;;;5001327;28;20795;-75
2022/08/25 00:38:39;;;;;;;8.40;6.32;;;;;;;;;;5007675;28;20054;-75
2022/08/25 00:41:06;;;;;;;7.45;5.50;;;;;;;;;;5006046;28;20039;-75
2022/08/25 00:43:53;;;;;;;5.97;4.97;;;;;;;;;;4997160;28;20047;-75
2022/08/25 00:46:22;;;;;;;6.20;4.70;;;;;;;;;;5017697;28;20511;-74
2022/08/25 00:48:53;;;;;;;7.25;4.97;;;;;;;;;;5001899;28;20054;-75
2022/08/25 00:51:23;;;;;;;8.65;5.30;;;;;;;;;;5005086;28;20058;-74
2022/08/25 00:53:51;;;;;;;7.32;5.07;;;;;;;;;;5005255;28;20975;-76
2022/08/25 00:56:18;;;;;;;8.77;6.05;;;;;;;;;;5007754;28;20065;-76
2022/08/25 00:58:48;;;;;;;8.23;5.75;;;;;;;;;;5000161;28;20054;-75
2022/08/25 01:01:15;;;;;;;7.85;5.30;;;;;;;;;;5005978;28;20065;-74
2022/08/25 01:03:42;;;;;;;7.55;5.68;;;;;;;;;;5002841;28;20085;-74
2022/08/25 01:06:10;;;;;;;7.22;5.55;;;;;;;;;;5002416;28;20023;-75
2022/08/25 01:08:38;;;;;;;8.77;6.00;;;;;;;;;;5006419;28;20138;-75
2022/08/25 01:11:06;;;;;;;7.78;6.35;;;;;;;;;;5004273;28;20055;-74
2022/08/25 01:13:37;;;;;;;10.70;6.85;;;;;;;;;;5008425;28;20057;-75
2022/08/25 01:16:04;;;;;;;9.18;7.53;;;;;;;;;;5003199;28;20061;-75
2022/08/25 01:18:42;;;;;;;14.00;7.40;;;;;;;;;;5007276;28;20054;-75
2022/08/25 01:21:09;;;;;;;8.60;6.68;;;;;;;;;;5005272;28;20061;-74
2022/08/25 01:23:36;;;;;;;9.65;7.28;;;;;;;;;;5015298;28;20046;-74
2022/08/25 01:26:03;;;;;;;9.43;6.60;;;;;;;;;;5000668;28;20141;-74
2022/08/25 01:28:31;;;;;;;9.13;6.50;;;;;;;;;;5022202;28;20057;-74
2022/08/25 01:30:58;;;;;;;7.57;5.90;;;;;;;;;;5003226;28;20047;-74
2022/08/25 01:33:25;;;;;;;11.13;6.18;;;;;;;;;;5006362;28;20256;-74
2022/08/25 01:35:53;;;;;;;6.47;5.30;;;;;;;;;;5004364;28;20101;-75
2022/08/25 01:38:20;;;;;;;8.35;5.55;;;;;;;;;;5006240;28;20055;-74
2022/08/25 01:40:49;;;;;;;5.10;4.40;;;;;;;;;;5011073;28;20126;-74
2022/08/25 01:43:25;;;;;;;5.50;4.80;;;;;;;;;;5011631;28;20035;-74
2022/08/25 01:45:52;;;;;;;6.32;4.75;;;;;;;;;;5007200;28;20054;-75
2022/08/25 01:48:20;;;;;;;7.72;4.50;;;;;;;;;;5008804;28;20051;-76
2022/08/25 01:50:47;;;;;;;4.50;3.90;;;;;;;;;;5024021;28;20597;-74
2022/08/25 01:53:21;;;;;;;4.20;3.35;;;;;;;;;;5004867;28;20927;-74
2022/08/25 01:55:51;;;;;;;4.18;3.42;;;;;;;;;;5004859;28;20827;-74
2022/08/25 01:58:22;;;;;;;3.80;3.22;;;;;;;;;;5013002;28;20173;-74
2022/08/25 02:00:53;;;;;;;4.10;3.30;;;;;;;;;;5011425;28;20043;-76
2022/08/25 02:03:21;;;;;;;3.67;3.17;;;;;;;;;;5016534;28;20145;-75
2022/08/25 02:05:48;;;;;;;4.38;3.50;;;;;;;;;;5019123;28;20899;-78
2022/08/25 02:08:16;;;;;;;3.20;2.90;;;;;;;;;;5021350;28;20061;-74
2022/08/25 02:10:45;;;;;;;5.70;3.60;;;;;;;;;;5020155;28;20102;-74
2022/08/25 02:13:12;;;;;;;3.83;3.17;;;;;;;;;;5015047;28;20106;-76
2022/08/25 02:15:45;;;;;;;5.22;4.43;;;;;;;;;;5021892;28;20062;-75
2022/08/25 02:18:13;;;;;;;8.07;5.30;;;;;;;;;;5027856;28;20123;-76
2022/08/25 02:20:40;;;;;;;5.70;5.03;;;;;;;;;;5017380;28;20042;-75
2022/08/25 02:23:07;;;;;;;6.45;5.15;;;;;;;;;;5013504;28;20108;-76
2022/08/25 02:25:34;;;;;;;7.70;5.95;;;;;;;;;;5016571;28;20039;-76
2022/08/25 02:28:01;;;;;;;10.38;6.65;;;;;;;;;;5033824;28;20050;-76
2022/08/25 02:30:29;;;;;;;7.97;5.40;;;;;;;;;;5011817;28;20070;-76
2022/08/25 02:32:57;;;;;;;5.45;4.40;;;;;;;;;;5026327;28;20035;-75
2022/08/25 02:35:24;;;;;;;6.70;4.75;;;;;;;;;;5016996;28;20027;-77
2022/08/25 02:37:52;;;;;;;5.20;4.35;;;;;;;;;;5017873;28;20065;-76
2022/08/25 02:40:20;;;;;;;5.97;5.35;;;;;;;;;;5015689;28;20056;-75
2022/08/25 02:42:48;;;;;;;7.47;5.15;;;;;;;;;;5015497;28;20061;-76
2022/08/25 02:45:15;;;;;;;6.70;5.72;;;;;;;;;;5020117;28;20078;-76
2022/08/25 02:47:42;;;;;;;7.43;5.82;;;;;;;;;;5021754;28;20034;-75
2022/08/25 02:50:09;;;;;;;7.75;5.63;;;;;;;;;;5013160;28;20053;-76
2022/08/25 02:52:38;;;;;;;7.20;6.18;;;;;;;;;;5017835;28;20060;-77
2022/08/25 02:55:06;;;;;;;7.55;6.22;;;;;;;;;;5022746;28;20050;-75
2022/08/25 02:57:34;;;;;;;9.73;6.43;;;;;;;;;;5020836;28;20046;-76
2022/08/25 03:00:03;;;;;;;6.95;6.25;;;;;;;;;;5023688;28;20045;-76
2022/08/25 03:02:31;;;;;;;6.65;5.82;;;;;;;;;;5016962;28;20043;-75
2022/08/25 03:04:58;;;;;;;6.82;5.82;;;;;;;;;;5019260;28;20035;-76
2022/08/25 03:07:25;;;;;;;10.30;6.22;;;;;;;;;;5020717;28;20092;-77
2022/08/25 03:09:53;;;;;;;7.38;6.00;;;;;;;;;;5020586;28;20098;-75
2022/08/25 03:12:21;;;;;;;11.05;6.38;;;;;;;;;;5029470;28;20114;-75
2022/08/25 03:14:48;;;;;;;9.55;5.85;;;;;;;;;;5019416;28;20034;-76
2022/08/25 03:17:16;;;;;;;7.85;6.15;;;;;;;;;;5028873;28;20491;-75
2022/08/25 03:19:43;;;;;;;10.75;7.40;;;;;;;;;;5016482;28;21127;-75
2022/08/25 03:22:10;;;;;;;10.95;9.10;;;;;;;;;;5017650;28;20062;-75
2022/08/25 03:24:38;;;;;;;11.00;8.60;;;;;;;;;;5015948;28;20030;-77
2022/08/25 03:27:05;;;;;;;10.98;9.65;;;;;;;;;;5017615;28;20051;-74
2022/08/25 03:29:32;;;;;;;10.05;8.88;;;;;;;;;;5017025;28;20041;-75
2022/08/25 03:32:00;;;;;;;12.07;9.80;;;;;;;;;;5023720;28;20047;-75
2022/08/25 03:34:29;;;;;;;13.93;9.77;;;;;;;;;;5011411;28;20035;-77
2022/08/25 03:36:57;;;;;;;14.13;10.90;;;;;;;;;;5019794;28;20137;-75
2022/08/25 03:39:25;;;;;;;16.17;11.40;;;;;;;;;;5017600;28;20058;-75
2022/08/25 03:41:52;;;;;;;19.92;12.73;;;;;;;;;;5021794;28;20046;-76
2022/08/25 03:44:20;;;;;;;14.68;11.70;;;;;;;;;;5033470;28;20091;-74
2022/08/25 03:46:48;;;;;;;16.17;11.63;;;;;;;;;;5013389;28;20065;-76
2022/08/25 03:49:17;;;;;;;17.10;12.13;;;;;;;;;;5023666;28;20118;-76
2022/08/25 03:51:49;;;;;;;14.07;12.10;;;;;;;;;;5017787;28;20049;-75
2022/08/25 03:54:17;;;;;;;13.35;11.93;;;;;;;;;;5022475;28;20040;-77
2022/08/25 03:56:44;;;;;;;14.63;12.38;;;;;;;;;;5017750;28;20047;-76
2022/08/25 03:59:12;;;;;;;20.35;13.13;;;;;;;;;;5022164;28;20058;-76
2022/08/25 04:01:40;;;;;;;15.68;13.02;;;;;;;;;;5022355;28;20051;-75
2022/08/25 04:04:08;;;;;;;19.52;12.55;;;;;;;;;;5015026;28;20080;-75
2022/08/25 04:06:35;;;;;;;15.07;12.23;;;;;;;;;;5014850;28;20050;-75
2022/08/25 04:09:02;;;;;;;13.80;11.27;;;;;;;;;;5019407;28;20065;-75
2022/08/25 04:11:29;;;;;;;14.25;11.20;;;;;;;;;;5015042;28;20106;-74
2022/08/25 04:13:57;;;;;;;15.73;10.75;;;;;;;;;;5025986;28;20041;-76
2022/08/25 04:16:28;;;;;;;11.45;10.07;;;;;;;;;;5019504;28;20046;-75
2022/08/25 04:18:55;;;;;;;13.38;8.57;;;;;;;;;;5024352;28;20050;-76
2022/08/25 04:21:23;;;;;;;11.32;7.47;;;;;;;;;;5016608;28;20118;-76
2022/08/25 04:23:52;;;;;;;10.43;8.43;;;;;;;;;;5013461;28;20145;-75
2022/08/25 04:26:25;;;;;;;12.68;7.85;;;;;;;;;;5013798;28;20062;-75
2022/08/25 04:28:54;;;;;;;14.10;8.48;;;;;;;;;;5030391;28;20483;-76
2022/08/25 04:31:21;;;;;;;12.88;8.65;;;;;;;;;;5016472;28;20046;-74
2022/08/25 04:33:49;;;;;;;11.00;7.30;;;;;;;;;;5021908;28;20046;-76
2022/08/25 04:36:17;;;;;;;10.93;7.90;;;;;;;;;;5019692;28;20031;-74
2022/08/25 04:38:45;;;;;;;13.18;7.05;;;;;;;;;;5013148;28;20086;-75
2022/08/25 04:41:13;;;;;;;8.80;7.63;;;;;;;;;;5018519;28;20050;-76
2022/08/25 04:43:41;;;;;;;13.55;8.60;;;;;;;;;;5014038;28;20809;-75
2022/08/25 04:46:13;;;;;;;12.32;9.68;;;;;;;;;;5020215;28;20023;-76
2022/08/25 04:48:46;;;;;;;19.55;10.05;;;;;;;;;;5017230;28;20104;-76
2022/08/25 04:51:15;;;;;;;14.27;10.43;;;;;;;;;;5018447;28;20050;-76
2022/08/25 04:53:43;;;;;;;21.80;10.82;;;;;;;;;;5023358;28;20051;-76
2022/08/25 04:56:12;;;;;;;16.02;11.02;;;;;;;;;;5021830;28;20061;-75
2022/08/25 04:58:39;;;;;;;12.43;10.75;;;;;;;;;;5025389;28;20135;-75
2022/08/25 05:01:08;;;;;;;12.32;10.23;;;;;;;;;;5017250;28;20114;-76
2022/08/25 05:03:37;;;;;;;9.57;7.95;;;;;;;;;;5017138;28;20027;-75
2022/08/25 05:06:04;;;;;;;14.20;8.05;;;;;;;;;;5013949;28;20074;-75
2022/08/25 05:08:32;;;;;;;9.93;7.75;;;;;;;;;;5019428;28;20069;-76
2022/08/25 05:11:04;;;;;;;10.23;7.72;;;;;;;;;;5022341;28;20146;-76
2022/08/25 05:13:31;;;;;;;11.25;8.02;;;;;;;;;;5022186;28;20059;-76
2022/08/25 05:15:59;;;;;;;13.27;8.10;;;;;;;;;;5021761;28;20049;-75
2022/08/25 05:18:28;;;;;;;11.07;7.65;;;;;;;;;;5023400;28;20062;-75
2022/08/25 05:20:56;;;;;;;15.90;7.47;;;;;;;;;;5023692;28;20938;-75
2022/08/25 05:23:24;;;;;;;14.02;9.88;;;;;;;;;;5022029;28;20090;-75
2022/08/25 05:25:52;;;;;;;11.93;9.05;;;;;;;;;;5020438;28;20058;-76
2022/08/25 05:28:20;;;;;;;11.93;8.02;;;;;;;;;;5024272;28;20041;-76
2022/08/25 05:30:50;;;;;;;12.18;8.45;;;;;;;;;;5017255;28;20046;-75
2022/08/25 05:33:17;;;;;;;13.90;9.30;;;;;;;;;;5028167;28;20038;-78
2022/08/25 05:35:44;;;;;;;12.02;9.60;;;;;;;;;;5014824;28;20051;-74
2022/08/25 05:38:12;;;;;;;14.82;9.52;;;;;;;;;;5013354;28;20121;-76
2022/08/25 05:40:41;;;;;;;17.10;10.00;;;;;;;;;;5014565;28;20077;-75
2022/08/25 05:43:09;;;;;;;15.27;9.88;;;;;;;;;;5007727;28;20034;-76
2022/08/25 05:45:36;;;;;;;14.73;9.80;;;;;;;;;;5017927;28;20093;-75
2022/08/25 05:48:03;;;;;;;11.02;8.90;;;;;;;;;;5014223;28;20050;-75
2022/08/25 05:50:31;;;;;;;21.27;9.70;;;;;;;;;;5011312;28;20042;-78
2022/08/25 05:52:58;;;;;;;13.73;9.25;;;;;;;;;;5022790;28;20031;-75
2022/08/25 05:55:25;;;;;;;16.50;8.75;;;;;;;;;;5025924;28;20077;-78
2022/08/25 05:57:53;;;;;;;14.85;9.10;;;;;;;;;;5020703;28;20103;-76
2022/08/25 06:00:20;;;;;;;15.43;8.25;;;;;;;;;;5025762;28;20043;-76
2022/08/25 06:02:48;;;;;;;12.75;8.15;;;;;;;;;;5021323;28;20041;-78
2022/08/25 06:05:20;;;;;;;12.20;8.02;;;;;;;;;;5022546;28;20058;-77
2022/08/25 06:07:48;;;;;;;13.90;8.43;;;;;;;;;;5021663;28;20047;-77
2022/08/25 06:10:16;;;;;;;12.85;8.00;;;;;;;;;;5016248;28;20081;-78
2022/08/25 06:12:44;;;;;;;9.10;7.65;;;;;;;;;;5016931;28;20039;-77
2022/08/25 06:15:12;;;;;;;11.45;7.43;;;;;;;;;;5020198;28;20039;-77
2022/08/25 06:17:41;;;;;;;10.27;7.60;;;;;;;;;;5016488;28;20038;-78
2022/08/25 06:20:10;;;;;;;18.77;7.80;;;;;;;;;;5022827;28;20030;-77
2022/08/25 06:22:37;;;;;;;13.35;6.90;;;;;;;;;;5027473;28;20046;-77
2022/08/25 06:25:05;;;;;;;8.75;6.35;;;;;;;;;;5020044;28;20043;-77
2022/08/25 06:27:32;;;;;;;14.50;6.97;;;;;;;;;;5016659;28;20106;-77
2022/08/25 06:30:03;;;;;;;10.68;6.28;;;;;;;;;;5018806;28;20057;-77
2022/08/25 06:32:39;;;;;;;8.25;6.38;;;;;;;;;;5023783;28;20034;-77
2022/08/25 06:35:07;;;;;;;11.07;6.35;;;;;;;;;;5037777;28;20043;-77
2022/08/25 06:37:34;;;;;;;10.60;5.68;;;;;;;;;;5026341;28;20053;-76
2022/08/25 06:40:02;;;;;;;13.38;5.93;;;;;;;;;;5017806;28;20047;-77
2022/08/25 06:42:29;;;;;;;11.00;6.07;;;;;;;;;;5023683;28;20031;-77
2022/08/25 06:44:56;;;;;;;10.40;5.05;;;;;;;;;;5014526;28;20043;-76
2022/08/25 06:47:23;;;;;;;7.80;4.57;;;;;;;;;;5023020;28;20106;-77
2022/08/25 06:49:51;;;;;;;11.98;4.80;;;;;;;;;;5010439;28;20035;-77
2022/08/25 06:52:18;;;;;;;7.55;4.70;;;;;;;;;;5011762;28;20909;-75
2022/08/25 06:54:46;;;;;;;8.13;4.43;;;;;;;;;;5015307;28;20061;-77
2022/08/25 06:57:15;;;;;;;7.20;4.30;;;;;;;;;;5012604;28;20050;-75
2022/08/25 06:59:42;;;;;;;9.85;4.28;;;;;;;;;;5010056;28;20047;-76
2022/08/25 07:02:09;;;;;;;13.95;4.28;;;;;;;;;;5012831;28;20069;-75
2022/08/25 07:04:36;;;;;;;15.32;3.97;;;;;;;;;;5015473;28;20031;-75
2022/08/25 07:07:03;;;;;;;7.18;3.65;;;;;;;;;;5011106;28;21558;-75
2022/08/25 07:09:30;;;;;;;8.40;3.75;;;;;;;;;;5012885;28;21155;-75
2022/08/25 07:12:04;;;;;;;8.30;3.50;;;;;;;;;;5011970;28;20039;-76
2022/08/25 07:14:31;;;;;;;10.15;3.53;;;;;;;;;;5016840;28;20085;-76
2022/08/25 07:16:59;;;;;;;8.00;3.30;;;;;;;;;;5008617;28;20074;-76
2022/08/25 07:19:27;;;;;;;8.68;3.17;;;;;;;;;;5016622;28;20102;-75
2022/08/25 07:21:54;;;;;;;10.18;3.40;;;;;;;;;;5012215;28;20037;-75
2022/08/25 07:24:22;;;;;;;8.25;3.10;;;;;;;;;;5005215;28;20043;-74
2022/08/25 07:26:50;;;;;;;6.50;2.95;;;;;;;;;;5010837;28;20536;-75
2022/08/25 07:29:19;;;;;;;7.30;2.92;;;;;;;;;;5012179;28;20950;-76
2022/08/25 07:31:58;;;;;;;7.68;2.83;;;;;;;;;;5005723;28;20043;-76
2022/08/25 07:37:19;;;;;;;9.20;3.47;;;;;;;;;;5013864;28;20113;-75
2022/08/25 07:40:06;;;;;;;7.78;3.17;;;;;;;;;;5009448;28;20054;-75
2022/08/25 07:42:34;;;;;;;5.30;3.20;;;;;;;;;;5009306;28;20046;-75
2022/08/25 07:45:04;;;;;;;6.97;2.80;;;;;;;;;;5012407;28;20485;-75
2022/08/25 07:47:33;;;;;;;5.75;2.97;;;;;;;;;;5004907;28;20054;-76
2022/08/25 07:50:00;;;;;;;5.38;3.03;;;;;;;;;;5008351;28;20050;-76
2022/08/25 07:52:32;;;;;;;11.65;2.78;;;;;;;;;;5004841;28;20054;-75
2022/08/25 07:54:59;;;;;;;4.65;2.65;;;;;;;;;;5007118;28;20051;-77
2022/08/25 07:57:28;;;;;;;7.22;2.83;;;;;;;;;;5011844;28;20055;-76
2022/08/25 07:59:57;;;;;;;8.70;2.70;;;;;;;;;;5011295;28;20046;-77
2022/08/25 08:02:24;;;;;;;9.10;3.05;;;;;;;;;;5014487;28;20035;-76
2022/08/25 08:04:53;;;;;;;11.00;3.30;;;;;;;;;;5013750;28;20046;-75
2022/08/25 08:07:21;;;;;;;7.85;2.88;;;;;;;;;;5010837;28;20039;-76
2022/08/25 08:09:49;;;;;;;4.70;2.80;;;;;;;;;;5009948;28;20051;-76
2022/08/25 08:12:36;;;;;;;12.05;2.90;;;;;;;;;;5003430;28;20055;-74
2022/08/25 08:15:04;;;;;;;14.18;3.15;;;;;;;;;;5014908;28;20042;-77
2022/08/25 08:17:36;;;;;;;10.55;3.10;;;;;;;;;;5008049;28;20062;-77
2022/08/25 08:20:07;;;;;;;10.07;3.00;;;;;;;;;;5008446;28;20543;-75
2022/08/25 08:22:35;;;;;;;8.77;2.92;;;;;;;;;;5010568;28;20318;-75
2022/08/25 08:25:02;;;;;;;6.45;2.97;;;;;;;;;;5005314;28;20923;-77
2022/08/25 08:27:33;;;;;;;9.65;2.67;;;;;;;;;;5012580;28;20061;-76
2022/08/25 08:30:01;;;;;;;14.60;3.28;;;;;;;;;;5009596;28;20050;-77
2022/08/25 08:32:28;;;;;;;14.43;3.00;;;;;;;;;;5020931;28;20061;-75
2022/08/25 08:35:17;;;;;;;5.93;2.90;;;;;;;;;;5010518;28;20038;-76
2022/08/25 08:37:45;;;;;;;6.45;2.80;;;;;;;;;;5008102;28;20051;-76
2022/08/25 08:40:17;;;;;;;10.93;3.00;;;;;;;;;;5014857;28;20067;-76
2022/08/25 08:42:45;;;;;;;;;;;;;;;;;;5009288;28;20051;-76
2022/08/25 08:45:25;;;;;;;8.65;2.85;;;;;;;;;;5011293;28;45687;-76
2022/08/25 08:47:58;;;;;;;10.88;3.08;;;;;;;;;;5008760;28;20118;-75
2022/08/25 08:50:37;;;;;;;11.35;2.80;;;;;;;;;;5013735;28;20054;-77
2022/08/25 08:53:09;;;;;;;8.00;3.08;;;;;;;;;;5011313;28;20038;-75
2022/08/25 08:55:50;;;;;;;4.82;3.17;;;;;;;;;;5011500;28;20085;-75
2022/08/25 08:58:23;;;;;;;5.93;3.08;;;;;;;;;;5008851;28;20069;-77
2022/08/25 09:00:54;;;;;;;5.85;3.00;;;;;;;;;;5008084;28;20049;-76
2022/08/25 09:03:39;;;;;;;4.90;2.90;;;;;;;;;;5012590;28;20047;-75
2022/08/25 09:06:08;;;;;;;6.85;2.85;;;;;;;;;;5007599;28;20062;-75
2022/08/25 09:08:37;;;;;;;5.88;3.00;;;;;;;;;;5002281;28;20046;-75
2022/08/25 09:11:18;;;;;;;13.18;3.47;;;;;;;;;;5005891;28;20062;-77
2022/08/25 09:13:48;;;;;;;8.10;3.10;;;;;;;;;;5018487;28;20052;-75
2022/08/25 09:19:39;;;;;;;6.75;2.60;;;;;;;;;;5012717;28;20062;-76
2022/08/25 09:22:20;;;;;;;8.18;2.70;;;;;;;;;;5018096;28;20054;-76
2022/08/25 09:25:10;;;;;;;7.97;2.78;;;;;;;;;;5016464;28;20832;-76
2022/08/25 09:27:46;;;;;;;4.75;2.60;;;;;;;;;;5018815;28;20046;-75
2022/08/25 09:30:16;;;;;;;7.30;2.90;;;;;;;;;;5007413;28;20042;-76
2022/08/25 09:32:48;;;;;;;4.97;2.80;;;;;;;;;;5017705;28;20043;-76
2022/08/25 09:35:28;;;;;;;7.57;2.85;;;;;;;;;;5011517;28;20065;-77
2022/08/25 09:38:00;;;;;;;8.82;2.85;;;;;;;;;;5014016;28;20154;-76
2022/08/25 09:40:29;;;;;;;5.60;2.80;;;;;;;;;;5009996;28;20046;-77
2022/08/25 09:42:58;;;;;;;5.65;2.50;;;;;;;;;;5010263;28;20053;-76
2022/08/25 09:45:47;;;;;;;11.27;3.28;;;;;;;;;;5024423;28;20042;-75
2022/08/25 09:48:23;;;;;;;8.43;2.65;;;;;;;;;;5012080;28;20051;-76
2022/08/25 09:51:01;;;;;;;5.90;2.40;;;;;;;;;;5016815;28;20055;-75
2022/08/25 09:53:29;;;;;;;8.57;2.35;;;;;;;;;;5005007;28;20061;-76
2022/08/25 09:56:03;;;;;;;9.27;2.83;;;;;;;;;;5023022;28;20067;-76
2022/08/25 09:58:31;;;;;;;8.18;2.50;;;;;;;;;;5009239;28;20065;-76
2022/08/25 10:01:01;;;;;;;6.32;2.80;;;;;;;;;;5008158;28;20047;-74
2022/08/25 10:03:29;;;;;;;9.13;2.90;;;;;;;;;;5006532;28;20062;-75
2022/08/25 10:06:12;;;;;;;9.68;2.47;;;;;;;;;;5011114;28;20050;-77
2022/08/25 10:08:51;;;;;;;10.32;2.90;;;;;;;;;;5011163;28;20053;-76
2022/08/25 10:11:36;;;;;;;5.28;2.65;;;;;;;;;;5021978;28;20054;-75
2022/08/25 10:14:07;;;;;;;11.13;2.70;;;;;;;;;;5011109;28;20047;-76
2022/08/25 10:16:34;;;;;;;5.43;2.50;;;;;;;;;;5005039;28;20058;-76
2022/08/25 10:19:05;;;;;;;11.18;2.55;;;;;;;;;;5011159;28;20071;-75
2022/08/25 10:21:33;;;;;;;13.07;2.60;;;;;;;;;;5026877;28;21015;-76
2022/08/25 10:24:01;;;;;;;9.25;2.55;;;;;;;;;;5010857;28;20039;-76
2022/08/25 10:26:36;;;;;;;5.75;1.95;;;;;;;;;;5005533;28;20051;-76
2022/08/25 10:29:10;;;;;;;6.28;2.40;;;;;;;;;;5001957;28;20061;-75
2022/08/25 10:31:44;;;;;;;7.45;2.50;;;;;;;;;;5019740;28;20054;-75
2022/08/25 10:34:18;;;;;;;9.95;2.75;;;;;;;;;;5008055;28;20077;-75
2022/08/25 10:37:04;;;;;;;4.90;2.28;;;;;;;;;;5008601;28;20034;-75
2022/08/25 10:39:39;;;;;;;6.03;2.40;;;;;;;;;;5002147;28;20050;-77
2022/08/25 10:42:24;;;;;;;4.32;1.98;;;;;;;;;;5014752;28;21718;-77
2022/08/25 10:47:48;;;;;;;8.32;2.53;;;;;;;;;;5002903;28;20129;-76
2022/08/25 10:50:18;;;;;;;7.35;2.10;;;;;;;;;;5004221;28;20088;-76
2022/08/25 10:52:57;;;;;;;3.67;2.03;;;;;;;;;;5002257;28;20057;-76
2022/08/25 10:55:40;;;;;;;8.90;2.10;;;;;;;;;;4997090;28;20061;-76
2022/08/25 10:58:07;;;;;;;;;;;;;;;;;;5011352;28;20043;-76
2022/08/25 11:00:40;;;;;;;4.65;2.03;;;;;;;;;;4999023;28;46160;-76
2022/08/25 11:03:23;;;;;;;6.40;2.25;;;;;;;;;;5004087;28;20050;-74
2022/08/25 11:06:13;;;;;;;6.53;2.30;;;;;;;;;;5012035;28;20049;-76
2022/08/25 11:08:44;;;;;;;6.03;1.90;;;;;;;;;;5005802;28;20089;-75
2022/08/25 11:11:31;;;;;;;3.07;1.80;;;;;;;;;;5008660;28;20050;-75
2022/08/25 11:14:04;;;;;;;5.70;2.00;;;;;;;;;;5004107;28;20352;-75
2022/08/25 11:16:40;;;;;;;3.42;1.80;;;;;;;;;;5011531;28;20114;-75
2022/08/25 11:19:15;;;;;;;3.78;1.90;;;;;;;;;;5015801;28;20051;-75
2022/08/25 11:21:52;;;;;;;5.50;2.30;;;;;;;;;;5021587;28;20047;-76
2022/08/25 11:24:34;;;;;;;3.47;1.85;;;;;;;;;;5004740;28;20150;-75
2022/08/25 11:27:04;;;;;;;3.95;2.08;;;;;;;;;;5010081;28;20051;-76
2022/08/25 11:29:35;;;;;;;3.30;1.88;;;;;;;;;;5005263;28;20043;-76
2022/08/25 11:32:03;;;;;;;3.35;1.70;;;;;;;;;;5014272;28;20046;-76
2022/08/25 11:34:31;;;;;;;5.75;1.80;;;;;;;;;;5030018;28;20047;-75
2022/08/25 11:37:06;;;;;;;2.67;1.70;;;;;;;;;;5008135;28;20086;-77
2022/08/25 11:39:46;;;;;;;4.00;1.90;;;;;;;;;;5003410;28;20058;-75
2022/08/25 11:42:31;;;;;;;6.70;2.30;;;;;;;;;;5005992;28;20070;-76
2022/08/25 11:45:18;;;;;;;3.45;1.88;;;;;;;;;;5009441;28;20516;-76
2022/08/25 11:47:49;;;;;;;8.32;2.25;;;;;;;;;;5008930;28;20049;-76
2022/08/25 11:50:27;;;;;;;5.32;2.47;;;;;;;;;;5008204;28;21574;-76
2022/08/25 11:53:02;;;;;;;5.45;1.90;;;;;;;;;;5007154;28;20050;-77
2022/08/25 11:55:44;;;;;;;4.72;1.98;;;;;;;;;;5011941;28;20125;-76
2022/08/25 11:58:27;;;;;;;5.13;2.05;;;;;;;;;;5009162;28;20035;-75
2022/08/25 12:00:58;;;;;;;11.52;1.98;;;;;;;;;;5006660;28;20043;-75
2022/08/25 12:03:31;;;;;;;3.67;1.85;;;;;;;;;;5010485;28;20881;-74
2022/08/25 12:06:17;;;;;;;3.78;1.88;;;;;;;;;;5015296;28;20043;-76
2022/08/25 12:08:51;;;;;;;3.75;2.10;;;;;;;;;;5016422;28;20051;-78
2022/08/25 12:11:36;;;;;;;5.75;2.00;;;;;;;;;;5011149;28;20051;-77
2022/08/25 12:14:15;;;;;;;3.35;1.90;;;;;;;;;;5007245;28;20082;-76
2022/08/25 12:16:44;;;;;;;4.60;2.00;;;;;;;;;;5006956;28;20069;-76
2022/08/25 12:19:31;;;;;;;10.57;2.20;;;;;;;;;;5013055;28;20081;-75
2022/08/25 12:22:21;;;;;;;11.82;2.17;;;;;;;;;;5005775;28;20046;-76
2022/08/25 12:24:55;;;;;;;5.22;1.92;;;;;;;;;;5007115;28;20051;-75
2022/08/25 12:27:26;;;;;;;4.43;2.10;;;;;;;;;;5006698;28;20061;-76
2022/08/25 12:29:54;;;;;;;4.85;1.95;;;;;;;;;;5004639;28;20133;-76
2022/08/25 12:32:39;;;;;;;5.00;1.90;;;;;;;;;;5010157;28;20051;-77
2022/08/25 12:35:10;;;;;;;6.43;2.10;;;;;;;;;;5020565;28;20053;-75
2022/08/25 12:37:53;;;;;;;3.35;2.03;;;;;;;;;;5009818;28;20107;-76
2022/08/25 12:40:30;;;;;;;5.88;2.00;;;;;;;;;;5001264;28;20137;-76
2022/08/25 12:43:30;;;;;;;7.70;2.13;;;;;;;;;;5007147;28;20062;-76
2022/08/25 12:46:22;;;;;;;3.40;2.00;;;;;;;;;;5022301;28;20049;-75
2022/08/25 12:48:56;;;;;;;8.48;2.22;;;;;;;;;;5008412;28;20101;-76
2022/08/25 12:51:25;;;;;;;3.92;1.70;;;;;;;;;;5005889;28;20112;-76
2022/08/25 12:53:56;;;;;;;5.28;1.98;;;;;;;;;;5011472;28;20656;-75
2022/08/25 12:56:31;;;;;;;2.28;1.70;;;;;;;;;;5013031;28;20065;-75
2022/08/25 12:59:15;;;;;;;7.55;2.10;;;;;;;;;;5007668;28;20078;-76
2022/08/25 13:02:02;;;;;;;3.35;1.88;;;;;;;;;;5001297;28;20046;-76
2022/08/25 13:04:39;;;;;;;4.03;1.98;;;;;;;;;;5011239;28;20140;-76
2022/08/25 13:07:34;;;;;;;7.95;1.80;;;;;;;;;;5014200;28;20051;-77
2022/08/25 13:10:07;;;;;;;4.32;2.08;;;;;;;;;;4997440;28;20045;-75
2022/08/25 13:12:43;;;;;;;5.55;2.00;;;;;;;;;;5021997;28;20462;-76
2022/08/25 13:15:13;;;;;;;6.15;1.90;;;;;;;;;;5014962;28;20811;-77
2022/08/25 13:17:40;;;;;;;6.47;1.88;;;;;;;;;;5020021;28;20056;-77
2022/08/25 13:20:10;;;;;;;6.88;2.05;;;;;;;;;;5015981;28;20046;-76
2022/08/25 13:22:38;;;;;;;4.03;2.00;;;;;;;;;;5015334;28;20045;-74
2022/08/25 13:25:05;;;;;;;6.63;1.80;;;;;;;;;;5015547;28;20054;-77
2022/08/25 13:27:33;;;;;;;4.10;2.10;;;;;;;;;;5026985;28;20862;-75
2022/08/25 13:30:01;;;;;;;3.95;1.92;;;;;;;;;;5029141;28;20043;-75
2022/08/25 13:32:32;;;;;;;3.83;1.95;;;;;;;;;;5009324;28;20138;-75
2022/08/25 13:35:29;;;;;;;3.03;1.90;;;;;;;;;;5031404;28;20038;-75
2022/08/25 13:38:18;;;;;;;7.43;2.15;;;;;;;;;;5013103;28;20054;-76
2022/08/25 13:40:45;;;;;;;4.53;2.20;;;;;;;;;;5025196;28;20058;-75
2022/08/25 13:43:13;;;;;;;3.33;1.88;;;;;;;;;;5014353;28;20046;-75
2022/08/25 13:45:43;;;;;;;5.82;1.80;;;;;;;;;;5004013;28;20054;-75
2022/08/25 13:48:11;;;;;;;3.90;2.40;;;;;;;;;;5008969;28;20050;-76
2022/08/25 13:50:50;;;;;;;7.93;2.20;;;;;;;;;;5007896;28;20050;-75
2022/08/25 13:53:23;;;;;;;6.95;2.45;;;;;;;;;;5010183;28;20069;-75
2022/08/25 13:55:52;;;;;;;3.63;2.00;;;;;;;;;;5013849;28;20050;-76
2022/08/25 13:58:27;;;;;;;4.40;1.83;;;;;;;;;;5001970;28;20046;-75
2022/08/25 14:01:24;;;;;;;3.15;2.00;;;;;;;;;;5009851;28;20070;-75
2022/08/25 14:04:20;;;;;;;5.88;1.95;;;;;;;;;;5007560;28;20051;-76
2022/08/25 14:06:49;;;;;;;3.33;1.95;;;;;;;;;;5001186;28;20057;-76
2022/08/25 14:09:18;;;;;;;8.57;2.20;;;;;;;;;;5008099;28;20076;-76
2022/08/25 14:11:57;;;;;;;5.55;2.17;;;;;;;;;;5016849;28;20085;-75
2022/08/25 14:14:24;;;;;;;4.00;2.00;;;;;;;;;;4997013;28;20050;-76
2022/08/25 14:16:54;;;;;;;3.53;2.15;;;;;;;;;;4998249;28;20803;-76
2022/08/25 14:19:24;;;;;;;4.90;1.87;;;;;;;;;;5000277;28;20047;-76
2022/08/25 14:21:52;;;;;;;4.47;2.10;;;;;;;;;;4993880;28;20063;-76
2022/08/25 14:24:23;;;;;;;4.97;1.87;;;;;;;;;;4995326;28;20055;-76
2022/08/25 14:26:50;;;;;;;5.25;2.10;;;;;;;;;;4996274;28;20051;-76
2022/08/25 14:29:20;;;;;;;11.30;2.20;;;;;;;;;;5001902;28;20058;-76
2022/08/25 14:31:48;;;;;;;5.68;2.22;;;;;;;;;;4994835;28;20066;-76
2022/08/25 14:34:20;;;;;;;8.90;2.42;;;;;;;;;;5004669;28;22051;-75
2022/08/25 14:36:49;;;;;;;4.40;2.20;;;;;;;;;;5001511;28;20055;-76
2022/08/25 14:39:17;;;;;;;6.80;2.40;;;;;;;;;;5030934;28;20043;-75
2022/08/25 14:41:45;;;;;;;9.82;2.33;;;;;;;;;;5027488;28;20055;-75
2022/08/25 14:44:19;;;;;;;3.88;2.08;;;;;;;;;;5011873;28;20054;-76
2022/08/25 14:46:51;;;;;;;4.65;2.05;;;;;;;;;;5002358;28;20086;-75
2022/08/25 14:49:21;;;;;;;5.57;2.10;;;;;;;;;;5011380;28;20061;-76
2022/08/25 14:51:51;;;;;;;3.95;2.20;;;;;;;;;;5008023;28;20505;-75
2022/08/25 14:54:25;;;;;;;5.45;2.20;;;;;;;;;;5012775;28;20031;-77
2022/08/25 14:56:53;;;;;;;4.65;2.38;;;;;;;;;;5009838;28;20120;-76
2022/08/25 14:59:20;;;;;;;3.20;2.00;;;;;;;;;;5012015;28;20065;-75
2022/08/25 15:01:47;;;;;;;6.05;2.17;;;;;;;;;;5016901;28;20081;-77
2022/08/25 15:04:21;;;;;;;3.53;2.15;;;;;;;;;;5008321;28;20081;-75
2022/08/25 15:06:50;;;;;;;3.88;1.85;;;;;;;;;;5009286;28;20050;-76
2022/08/25 15:09:19;;;;;;;4.72;2.40;;;;;;;;;;5008146;28;20060;-77
2022/08/25 15:11:49;;;;;;;5.95;2.40;;;;;;;;;;5002007;28;20121;-75